Latest Weather Observations for Telfer

IDW60801

Issued at 3:32 am WST Saturday 31 January 2015 (issued every 30 minutes, with the page automatically refreshed every 10 minutes)

About weather observations | Map of weather stations | Latest weather observations for WA | Other Formats
Station Details ID: 013030 Name: TELFER AERO Lat: -21.71 Lon: 122.23 Height: 291.9 m
Data from the previous 72 hours. | See also: Recent months at Telfer
Date/Time
WST
Temp
°C
App
Temp
°C
Dew
Point
Rel
Hum
%
Delta-T
°C
Wind Press
QNH
hPa
Press
MSL
hPa
Rain
since 9 am
mm
Dir
 
Spd
km/h
Gust
km/h
Spd
kts
Gust
kts
31/03:30am 24.0 27.5 22.1 89 1.3 NNW 7 11 4 6 1008.6 1006.1 8.8
31/03:00am 24.0 27.2 22.3 90 1.1 NW 9 11 5 6 1008.4 1005.9 8.8
31/02:30am 23.9 27.0 22.9 94 0.7 NNW 11 17 6 9 1008.0 1005.5 8.8
31/02:00am 23.8 26.3 23.1 96 0.5 NNW 15 20 8 11 1008.5 1006.0 8.4
31/01:30am 23.9 25.7 23.2 96 0.5 NNW 19 28 10 15 1008.7 1006.2 7.8
31/01:00am 23.8 26.1 23.5 98 0.2 N 17 24 9 13 1008.7 1006.2 7.6
31/12:30am 23.8 25.6 23.6 99 0.1 NNE 20 28 11 15 1008.6 1006.1 7.6
31/12:00am 24.0 26.1 23.7 98 0.2 NNE 19 28 10 15 1009.1 1006.6 6.8
 
Date/Time
WST
Temp
°C
App
Temp
°C
Dew
Point
Rel
Hum
%
Delta-T
°C
Wind Press
QNH
hPa
Press
MSL
hPa
Rain
since 9 am
mm
Dir
 
Spd
km/h
Gust
km/h
Spd
kts
Gust
kts
30/11:30pm 23.8 24.9 23.1 96 0.5 N 22 33 12 18 1009.4 1006.9 5.4
30/11:00pm 23.4 23.1 21.1 87 1.5 NNE 24 32 13 17 1009.6 1007.0 3.6
30/10:30pm 25.4 27.2 20.4 74 3.3 NE 11 15 6 8 1010.5 1007.9 0.2
30/10:00pm 25.6 25.4 19.7 70 3.9 E 20 26 11 14 1010.0 1007.4 0.2
30/09:30pm 25.4 25.1 19.5 70 3.8 ENE 20 28 11 15 1010.1 1007.5 0.2
30/09:00pm 25.5 24.6 19.9 71 3.7 ESE 24 32 13 17 1009.3 1006.8 0.2
30/08:30pm 26.0 23.4 19.6 68 4.2 ESE 32 44 17 24 1008.5 1006.0 0.2
30/08:00pm 26.3 23.6 19.2 65 4.6 ESE 32 43 17 23 1007.8 1005.3 0.2
30/07:30pm 26.3 24.5 20.4 70 3.9 SE 30 41 16 22 1007.0 1004.4 0.2
30/07:00pm 26.0 24.0 19.9 69 4.0 E 30 39 16 21 1006.7 1004.1 0.2
30/06:30pm 28.1 25.8 19.3 58 5.8 ESE 30 39 16 21 1005.7 1003.2 0.2
30/06:29pm 28.2 25.9 19.4 59 5.8 ESE 30 39 16 21 1005.7 1003.2 0.2
30/06:00pm 28.7 25.1 19.3 56 6.2 SE 37 46 20 25 1004.8 1002.3 0.2
30/05:30pm 30.0 26.2 19.7 54 6.8 SE 39 52 21 28 1004.5 1002.0 0.2
30/05:22pm 32.1 31.5 17.6 42 9.4 S 17 43 9 23 1004.4 1001.8 0.2
30/05:00pm 36.5 36.9 18.1 33 12.2 W 13 20 7 11 1004.0 1001.4 0.2
30/04:30pm 37.2 36.7 17.7 31 12.8 WNW 17 32 9 17 1003.7 1001.1 0.2
30/04:00pm 36.2 36.1 17.8 33 12.1 NW 15 24 8 13 1003.7 1001.1 0.2
30/03:30pm 36.4 36.8 18.9 35 11.7 NW 15 24 8 13 1004.3 1001.7 0.2
30/03:00pm 35.7 36.2 19.2 38 11.1 NNW 15 28 8 15 1004.7 1002.2 0.2
30/02:30pm 34.9 33.9 18.0 36 11.1 NW 20 28 11 15 1005.0 1002.5 0.2
30/02:00pm 34.1 34.7 18.6 40 10.3 N 13 24 7 13 1005.6 1003.1 0.2
30/01:30pm 34.1 35.1 19.4 42 9.8 NNW 13 22 7 12 1006.1 1003.5 0.2
30/01:00pm 33.6 34.7 19.7 44 9.3 NW 13 24 7 13 1006.6 1004.0 0.2
30/12:30pm 32.2 32.7 20.1 48 8.1 NNW 17 24 9 13 1007.3 1004.7 0.2
30/12:00pm 31.3 33.4 20.9 54 7.0 N 11 19 6 10 1008.0 1005.5 0.2
30/11:30am 30.6 33.2 20.5 54 6.8 N 7 15 4 8 1008.6 1006.1 0.2
30/11:00am 30.0 32.4 20.8 57 6.2 N 9 17 5 9 1009.1 1006.6 0.2
30/10:30am 28.8 30.8 20.8 62 5.4 NNW 11 17 6 9 1009.4 1006.9 0.0
30/10:00am 28.1 30.6 21.1 65 4.7 NNW 9 17 5 9 1009.8 1007.2 0.0
30/09:30am 27.5 29.9 21.5 70 4.0 N 11 15 6 8 1009.7 1007.1 0.0
30/09:00am 27.4 29.0 22.1 73 3.6 N 17 22 9 12 1009.6 1007.0 7.2
30/08:30am 26.9 29.9 22.7 78 2.9 NNE 11 17 6 9 1009.6 1007.0 7.2
30/08:00am 26.3 31.3 23.2 83 2.1 E 2 7 1 4 1009.6 1007.0 7.2
30/07:30am 25.4 29.2 23.5 89 1.3 SE 9 11 5 6 1009.4 1006.9 7.2
30/07:00am 25.0 28.0 23.4 91 1.1 SE 13 17 7 9 1009.6 1007.0 7.2
30/06:30am 25.0 26.5 23.1 89 1.3 SSE 20 24 11 13 1009.4 1006.9 7.2
30/06:00am 24.8 28.5 23.2 91 1.1 NE 9 13 5 7 1008.1 1005.6 7.2
30/05:30am 24.7 27.7 22.0 85 1.8 N 9 13 5 7 1007.1 1004.5 7.2
30/05:00am 24.7 27.9 22.4 87 1.6 WNW 9 13 5 7 1006.8 1004.2 7.2
30/04:30am 24.6 27.5 22.5 88 1.4 NNW 11 15 6 8 1006.9 1004.3 7.2
30/04:00am 24.4 28.4 22.7 90 1.2 NNW 6 9 3 5 1007.3 1004.7 7.2
30/03:30am 24.2 28.3 23.2 94 0.7 NW 7 9 4 5 1007.6 1005.1 7.2
30/03:00am 24.0 27.3 22.6 92 1.0 NNE 9 13 5 7 1007.8 1005.3 7.2
30/02:30am 23.9 27.8 22.9 94 0.7 NNE 7 11 4 6 1007.7 1005.2 7.2
30/02:00am 23.8 27.6 22.8 94 0.7 SE 7 13 4 7 1007.3 1004.7 7.2
30/01:30am 23.6 26.9 21.9 90 1.1 ENE 7 9 4 5 1007.0 1004.4 7.2
30/01:00am 23.6 25.0 21.1 86 1.7 ESE 15 19 8 10 1007.9 1005.4 7.2
30/12:30am 24.4 25.8 21.9 86 1.7 SE 17 22 9 12 1008.2 1005.7 7.2
30/12:00am 27.2 29.4 19.5 62 5.1 SW 7 13 4 7 1007.9 1005.4 0.0
 
Date/Time
WST
Temp
°C
App
Temp
°C
Dew
Point
Rel
Hum
%
Delta-T
°C
Wind Press
QNH
hPa
Press
MSL
hPa
Rain
since 9 am
mm
Dir
 
Spd
km/h
Gust
km/h
Spd
kts
Gust
kts
29/11:30pm 27.0 26.8 19.4 63 5.0 NW 19 24 10 13 1007.8 1005.3 0.0
29/11:00pm 27.3 28.4 20.4 66 4.6 NW 15 20 8 11 1008.0 1005.5 0.0
29/10:30pm 27.4 27.9 20.0 64 4.9 NW 17 24 9 13 1008.2 1005.7 0.0
29/10:00pm 29.3 31.2 19.0 53 6.8 S 7 9 4 5 1007.6 1005.1 0.0
29/09:30pm 29.0 30.7 19.3 55 6.4 SSW 9 15 5 8 1007.4 1004.8 0.0
29/09:00pm 28.9 30.9 19.2 55 6.4 SSW 7 13 4 7 1007.1 1004.5 0.0
29/08:30pm 27.2 29.4 19.5 62 5.0 WNW 7 13 4 7 1006.0 1003.4 0.0
29/08:00pm 27.1 28.2 18.9 61 5.3 NNE 11 20 6 11 1005.5 1003.0 0.0
29/07:30pm 27.3 24.8 18.9 60 5.5 WNW 30 39 16 21 1006.1 1003.5 0.0
29/07:00pm 29.5 25.2 18.6 52 7.1 WNW 39 56 21 30 1005.6 1003.1 0.0
29/06:50pm 30.5 28.6 18.6 49 7.8 W 26 54 14 29 1006.0 1003.4 0.0
29/06:30pm 33.3 32.8 18.6 41 9.7 SSW 19 24 10 13 1004.6 1002.1 0.0
29/06:00pm 32.5 28.2 16.8 39 10.1 S 35 50 19 27 1003.8 1001.2 0.0
29/05:49pm 32.9 30.7 17.9 41 9.8 S 26 57 14 31 1004.3 1001.7 0.0
29/05:48pm 32.8 31.0 17.8 40 9.8 S 24 57 13 31 1004.3 1001.7 0.0
29/05:30pm 36.5 36.3 17.6 32 12.4 SE 15 24 8 13 1003.7 1001.1 0.0
29/05:00pm 36.5 35.7 17.1 31 12.7 SSE 17 20 9 11 1003.4 1000.8 0.0
29/04:30pm 36.3 37.1 17.4 32 12.3 ESE 9 17 5 9 1003.1 1000.5 0.0
29/04:00pm 36.2 36.3 17.4 33 12.3 SSE 13 22 7 12 1003.2 1000.6 0.0
29/03:30pm 35.9 36.8 18.5 36 11.5 SE 11 19 6 10 1003.8 1001.2 0.0
29/03:00pm 35.8 35.7 17.9 34 11.8 SSE 15 20 8 11 1004.2 1001.6 0.0
29/02:30pm 36.4 37.1 18.9 35 11.7 SSE 13 19 7 10 1004.7 1002.2 0.0
29/02:00pm 35.8 36.9 18.8 36 11.3 SSW 11 19 6 10 1005.0 1002.5 0.0
29/01:30pm 35.4 36.1 18.9 37 11.0 S 13 20 7 11 1005.4 1002.9 0.0
29/01:00pm 34.7 36.5 19.5 40 10.2 SW 9 17 5 9 1006.0 1003.4 0.0
29/12:30pm 34.8 36.1 19.2 39 10.4 S 11 22 6 12 1006.3 1003.7 0.0
29/12:00pm 34.4 36.6 19.6 41 9.9 WNW 7 13 4 7 1006.8 1004.2 0.0
29/11:30am 33.9 35.8 20.6 45 9.0 WNW 11 17 6 9 1007.1 1004.5 0.0
29/11:00am 32.8 35.0 20.3 47 8.4 WNW 9 17 5 9 1007.4 1004.8 0.0
29/10:30am 32.1 34.8 20.7 51 7.7 S 7 15 4 8 1007.9 1005.4 0.0
29/10:00am 31.0 33.4 20.9 55 6.8 W 9 13 5 7 1008.1 1005.6 0.0
29/09:30am 30.4 33.7 21.8 60 5.9 NNW 7 11 4 6 1008.4 1005.9 0.0
29/09:00am 28.8 30.8 20.8 62 5.4 NNW 11 15 6 8 1008.4 1005.9 0.0
29/08:30am 28.6 31.5 21.1 64 5.0 NW 7 13 4 7 1008.3 1005.8 0.0
29/08:00am 27.8 30.7 21.1 67 4.5 SSW 7 11 4 6 1008.4 1005.9 0.0
29/07:30am 27.9 30.8 21.0 66 4.6 SE 7 11 4 6 1008.6 1006.1 0.0
29/07:00am 26.7 29.1 20.8 70 3.9 SSE 9 11 5 6 1008.5 1006.0 0.0
29/06:30am 26.4 29.4 21.2 73 3.5 SSE 7 9 4 5 1008.0 1005.5 0.0
29/06:00am 26.3 28.5 21.1 73 3.5 SE 11 15 6 8 1007.4 1004.8 0.0
29/05:30am 26.1 29.1 21.3 75 3.2 E 7 9 4 5 1006.8 1004.2 0.0
29/05:00am 26.3 29.4 21.5 75 3.2 E 7 9 4 5 1006.3 1003.7 0.0
29/04:30am 26.5 29.8 20.8 71 3.8 ENE 4 7 2 4 1006.3 1003.7 0.0
29/04:00am 26.6 30.3 20.7 70 3.9 E 2 6 1 3 1006.4 1003.8 0.0
29/03:30am 26.8 29.1 20.6 69 4.1 ESE 9 11 5 6 1006.2 1003.6 0.0
29/03:00am 27.2 31.2 20.5 67 4.5 CALM 0 6 0 3 1006.6 1004.0 0.0
29/02:30am 27.2 30.5 20.0 64 4.7 ENE 2 9 1 5 1006.4 1003.8 0.0
29/02:00am 27.5 29.6 20.1 64 4.9 NNE 9 13 5 7 1006.5 1003.9 0.0
29/01:30am 27.7 29.2 19.8 62 5.2 ENE 11 19 6 10 1006.5 1003.9 0.0
29/01:00am 27.8 28.5 19.6 61 5.4 NE 15 19 8 10 1006.5 1003.9 0.0
29/12:30am 28.0 28.8 19.8 61 5.4 ENE 15 22 8 12 1007.0 1004.4 0.0
29/12:00am 28.4 28.8 19.9 60 5.6 NE 17 24 9 13 1007.4 1004.8 0.0
 
Date/Time
WST
Temp
°C
App
Temp
°C
Dew
Point
Rel
Hum
%
Delta-T
°C
Wind Press
QNH
hPa
Press
MSL
hPa
Rain
since 9 am
mm
Dir
 
Spd
km/h
Gust
km/h
Spd
kts
Gust
kts
28/11:30pm 28.4 28.1 20.4 62 5.3 E 22 32 12 17 1007.2 1004.6 0.0
28/11:00pm 28.7 26.9 20.4 60 5.5 E 30 39 16 21 1006.6 1004.0 0.0
28/10:30pm 29.1 26.4 19.7 57 6.2 ESE 33 46 18 25 1006.7 1004.1 0.0
28/10:22pm 29.4 26.7 19.7 56 6.4 ESE 33 52 18 28 1006.7 1004.1 0.0
28/10:08pm 30.3 29.4 19.0 50 7.4 ESE 22 44 12 24 1006.6 1004.0 0.0
28/10:00pm 30.7 30.3 18.1 47 8.2 SE 17 20 9 11 1006.3 1003.7 0.0
28/09:30pm 31.3 29.9 17.9 44 8.7 SSE 22 30 12 16 1006.3 1003.7 0.0
28/09:00pm 32.3 32.2 18.8 44 8.9 SSE 17 24 9 13 1006.0 1003.4 0.0
28/08:30pm 32.9 35.7 20.4 47 8.4 SE 6 9 3 5 1005.6 1003.1 0.0
28/08:00pm 33.9 35.6 18.4 40 10.2 S 7 9 4 5 1005.4 1002.9 0.0
28/07:30pm 34.2 35.6 17.8 37 10.7 SSW 7 9 4 5 1005.2 1002.7 0.0
28/07:00pm 34.5 34.7 16.8 34 11.4 SSW 11 15 6 8 1004.9 1002.4 0.0
28/06:30pm 34.9 35.1 16.7 34 11.7 WSW 11 15 6 8 1004.3 1001.7 0.0
28/06:00pm 35.6 35.3 16.4 32 12.4 SW 13 20 7 11 1003.8 1001.2 0.0
28/05:30pm 36.3 35.6 16.5 31 12.8 SW 15 20 8 11 1003.7 1001.1 0.0
28/05:00pm 36.4 36.5 16.5 30 12.9 WNW 11 17 6 9 1003.6 1001.0 0.0
28/04:30pm 36.7 36.9 16.8 30 12.9 W 11 20 6 11 1003.6 1001.0 0.0
28/04:00pm 36.8 36.9 16.4 30 13.2 WNW 11 22 6 12 1003.7 1001.1 0.0
28/03:30pm 36.8 35.5 15.8 28 13.4 WSW 17 22 9 12 1003.9 1001.3 0.0
28/03:00pm 35.9 35.1 16.1 30 12.7 WNW 15 19 8 10 1004.4 1001.8 0.0
28/02:30pm 36.1 36.1 16.3 31 12.7 SW 11 17 6 9 1004.8 1002.3 0.0
28/02:00pm 35.5 34.6 15.8 31 12.6 NW 15 24 8 13 1005.0 1002.5 0.0
28/01:30pm 34.8 34.0 16.1 32 11.9 NW 15 22 8 12 1005.3 1002.8 0.0
28/01:00pm 35.6 36.6 16.8 32 12.2 WSW 7 17 4 9 1005.6 1003.1 0.0
28/12:30pm 33.8 33.8 15.3 33 11.6 NW 9 17 5 9 1006.3 1003.7 0.0
28/12:00pm 34.0 33.9 15.9 33 11.5 NE 11 20 6 11 1006.8 1004.2 0.0
28/11:30am 33.2 32.8 15.2 33 11.3 NNW 11 17 6 9 1007.1 1004.5 0.0
28/11:00am 32.1 32.0 16.0 38 10.2 NNE 11 20 6 11 1007.5 1004.9 0.0
28/10:30am 30.9 30.1 16.1 41 9.3 NE 15 24 8 13 1008.0 1005.5 0.0
28/10:00am 30.0 29.7 16.4 44 8.6 NE 13 22 7 12 1008.4 1005.9 0.0
28/09:30am 29.3 29.1 16.8 47 7.9 NE 13 22 7 12 1008.9 1006.4 0.0
28/09:00am 28.7 28.6 16.9 48 7.5 ENE 13 20 7 11 1009.1 1006.6 1.2
28/08:30am 27.5 26.6 17.7 55 6.3 E 19 24 10 13 1008.9 1006.4 1.2
28/08:00am 26.8 25.8 17.6 57 5.9 ESE 19 24 10 13 1009.2 1006.7 1.0
28/07:30am 25.2 25.3 19.1 69 3.9 ESE 17 24 9 13 1009.1 1006.6 1.0
28/07:00am 24.7 23.8 19.8 74 3.2 SE 24 32 13 17 1009.1 1006.6 1.0
28/06:30am 23.8 23.5 20.3 81 2.3 SE 22 30 12 16 1009.1 1006.6 1.0
28/06:00am 23.9 23.0 20.6 82 2.2 SE 26 33 14 18 1008.8 1006.3 1.0
28/05:30am 24.2 24.4 20.5 80 2.4 SE 20 30 11 16 1008.7 1006.2 1.0
28/05:00am 24.3 24.3 20.2 78 2.7 SSE 20 28 11 15 1007.7 1005.2 1.0
28/04:30am 24.4 24.3 19.9 76 2.9 SSE 20 28 11 15 1007.2 1004.6 1.0
28/04:00am 24.0 23.0 19.7 77 2.8 SSE 24 33 13 18 1006.8 1004.2 1.0

Other Formats:

Comma delimited format used in spreadsheet applications
http://www.bom.gov.au/fwo/IDW60801/IDW60801.94319.axf

JavaScript Object Notation format (JSON) in row-major order
http://www.bom.gov.au/fwo/IDW60801/IDW60801.94319.json